Alvaton, Kentucky
Current Conditions -  °F | °C
As of 5:53 PM on Wednesday 28 Jan 2015 (Local Time) from KBWG Reporting Station
Clear Clear  
Wind Chill: 34°   Ceiling: Unl
Heat Index: 38°   Visibility: 10mi
Dew Point: 21°   Wind: 5mph
Humidity: 51%   Direction: 130°SE
Pressure: 30.21"   Gusts: NA
Location:  36.87°N, 86.35°W
Report Text: KBWG 282353Z AUTO 13004KT 10SM CLR 03/M06 A3021 RMK AO2 SLP234 T00331061 10078 20033 55012
Loading
Personal Weather Stations






























Interactive Weather Map New forecast layout! Learn more

10-Day Weather Forecast

Advertisements
Track Severe Weather on mobile